createdAt,value
2023-04-18T05:38:30.412Z,13.77
2023-04-18T05:41:00.558Z,13.76
2023-04-18T05:43:28.453Z,13.80
2023-04-18T05:45:57.772Z,13.97
2023-04-18T05:48:25.882Z,14.15
2023-04-18T05:50:53.512Z,14.18
2023-04-18T05:53:21.424Z,14.20
2023-04-18T05:55:50.273Z,14.23
2023-04-18T05:58:17.948Z,14.40
2023-04-18T06:00:45.842Z,14.40
2023-04-18T06:03:13.816Z,14.48
2023-04-18T06:05:41.690Z,14.51
2023-04-18T06:08:09.500Z,14.51
2023-04-18T06:10:39.165Z,14.61
2023-04-18T06:13:06.971Z,14.77
2023-04-18T06:15:35.520Z,14.85
2023-04-18T06:18:03.204Z,14.95
2023-04-18T06:20:31.051Z,15.09
2023-04-18T06:22:58.776Z,15.24
2023-04-18T06:25:26.524Z,15.40
2023-04-18T06:27:54.154Z,15.77
2023-04-18T06:30:22.271Z,15.97
2023-04-18T06:32:50.063Z,16.08
2023-04-18T06:35:17.978Z,16.44
2023-04-18T06:37:46.114Z,16.62
2023-04-18T06:40:14.048Z,16.78
2023-04-18T06:42:42.684Z,16.89
2023-04-18T06:45:12.036Z,17.01
2023-04-18T06:47:40.915Z,17.09
2023-04-18T06:50:09.253Z,17.27
2023-04-18T06:52:40.819Z,17.23
2023-04-18T06:55:09.516Z,17.34
2023-04-18T06:57:41.783Z,17.49
2023-04-18T07:00:10.715Z,17.51
2023-04-18T07:02:39.928Z,17.55
2023-04-18T07:05:08.524Z,17.36
2023-04-18T07:07:36.261Z,17.36
2023-04-18T07:10:04.167Z,17.38
2023-04-18T07:12:31.868Z,17.72
2023-04-18T07:14:59.543Z,17.77
2023-04-18T07:17:27.267Z,17.87
2023-04-18T07:19:54.897Z,17.86
2023-04-18T07:22:22.528Z,17.99
2023-04-18T07:24:50.234Z,18.11
2023-04-18T07:27:17.934Z,18.34
2023-04-18T07:29:45.856Z,18.40
2023-04-18T07:32:13.626Z,18.46
2023-04-18T07:34:41.493Z,18.52
2023-04-18T07:37:09.342Z,18.58
2023-04-18T07:39:37.104Z,18.63
2023-04-18T07:42:04.944Z,18.62
2023-04-18T07:44:34.954Z,18.66
2023-04-18T07:47:03.426Z,18.84
2023-04-18T07:49:31.067Z,18.94
2023-04-18T07:51:58.721Z,18.93
2023-04-18T07:54:26.527Z,19.02
2023-04-18T07:56:54.275Z,19.06
2023-04-18T07:59:21.892Z,19.05
2023-04-18T08:01:49.599Z,18.99
2023-04-18T08:04:17.506Z,18.92
2023-04-18T08:06:45.429Z,19.06
2023-04-18T08:09:13.346Z,19.07
2023-04-18T08:11:42.795Z,18.85
2023-04-18T08:14:10.778Z,18.94
2023-04-18T08:16:40.129Z,18.99
2023-04-18T08:19:07.910Z,18.96
2023-04-18T08:21:35.799Z,19.01
2023-04-18T08:24:03.559Z,19.12
2023-04-18T08:26:31.264Z,19.12
2023-04-18T08:28:58.947Z,19.06
2023-04-18T08:31:27.754Z,19.13
2023-04-18T08:33:55.471Z,19.28
2023-04-18T08:36:25.012Z,19.26
2023-04-18T08:38:52.704Z,19.28
2023-04-18T08:41:25.202Z,19.22
2023-04-18T08:43:53.852Z,19.43
2023-04-18T08:46:23.338Z,19.44
2023-04-18T08:48:51.575Z,19.61
2023-04-18T08:51:19.370Z,19.69
2023-04-18T08:53:48.467Z,19.61
2023-04-18T08:56:16.502Z,19.56
2023-04-18T08:58:45.260Z,19.55
2023-04-18T09:01:13.861Z,19.79
2023-04-18T09:03:43.304Z,19.80
2023-04-18T09:06:20.393Z,19.80
2023-04-18T09:08:59.226Z,19.75
2023-04-18T09:11:29.748Z,19.81
2023-04-18T09:13:59.210Z,20.03
2023-04-18T09:16:28.166Z,19.78
2023-04-18T09:19:13.133Z,19.83
2023-04-18T09:21:44.658Z,19.81
2023-04-18T09:24:29.566Z,19.94
2023-04-18T09:26:59.880Z,19.88
2023-04-18T09:29:56.533Z,20.06
2023-04-18T09:32:29.451Z,20.16
2023-04-18T09:35:01.402Z,20.06
2023-04-18T09:37:31.139Z,20.06
2023-04-18T09:39:58.966Z,20.23
2023-04-18T09:42:28.810Z,20.37
2023-04-18T09:45:08.517Z,20.40
2023-04-18T09:47:37.583Z,20.20
2023-04-18T09:50:07.450Z,20.35
2023-04-18T09:52:42.509Z,20.33
2023-04-18T09:55:13.043Z,20.24
2023-04-18T09:57:44.509Z,20.04
2023-04-18T10:00:27.417Z,20.19
2023-04-18T10:03:09.991Z,20.21
2023-04-18T10:05:41.378Z,20.21
2023-04-18T10:08:09.616Z,20.37
2023-04-18T10:10:38.934Z,20.33
2023-04-18T10:13:11.835Z,20.47
2023-04-18T10:15:41.143Z,20.35
2023-04-18T10:18:14.471Z,20.16
2023-04-18T10:20:42.561Z,20.37
2023-04-18T10:23:40.399Z,20.68
2023-04-18T10:26:10.209Z,20.96
2023-04-18T10:28:58.676Z,21.18
2023-04-18T10:31:28.230Z,21.13
2023-04-18T10:36:31.219Z,21.49
2023-04-18T10:41:51.228Z,21.67
2023-04-18T10:44:23.565Z,21.43
2023-04-18T10:46:51.656Z,21.58
2023-04-18T10:49:28.859Z,21.89
2023-04-18T10:51:59.653Z,22.20
2023-04-18T10:54:39.310Z,22.19
2023-04-18T10:57:11.466Z,22.32
2023-04-18T10:59:42.899Z,22.10
2023-04-18T11:02:30.997Z,21.90
2023-04-18T11:05:04.888Z,21.84
2023-04-18T11:07:36.371Z,21.91
2023-04-18T11:10:08.629Z,22.13
2023-04-18T11:12:38.537Z,22.17
2023-04-18T11:15:23.144Z,22.23
2023-04-18T11:18:05.046Z,22.34
2023-04-18T11:20:41.107Z,22.36
2023-04-18T11:23:24.897Z,22.39
2023-04-18T11:25:56.679Z,22.06
2023-04-18T11:28:27.560Z,22.21
2023-04-18T11:30:59.536Z,22.41
2023-04-18T11:33:29.411Z,22.73
2023-04-18T11:35:58.925Z,22.69
2023-04-18T11:38:33.994Z,22.82
2023-04-18T11:41:04.979Z,22.67
2023-04-18T11:43:32.731Z,22.80
2023-04-18T11:46:01.126Z,22.37
2023-04-18T11:48:39.198Z,22.54
2023-04-18T11:51:08.106Z,22.88
2023-04-18T11:53:37.188Z,23.06
2023-04-18T11:56:06.015Z,22.97
2023-04-18T11:58:34.722Z,22.95
2023-04-18T12:01:19.738Z,22.82
2023-04-18T12:04:07.389Z,23.31
2023-04-18T12:06:53.818Z,23.36
2023-04-18T12:09:24.558Z,23.54
2023-04-18T12:11:59.705Z,23.53
2023-04-18T12:14:28.571Z,23.70
2023-04-18T12:16:56.623Z,23.61
2023-04-18T12:19:28.459Z,23.88
2023-04-18T12:21:58.057Z,23.71
2023-04-18T12:24:26.632Z,23.40
2023-04-18T12:26:55.614Z,23.59
2023-04-18T12:29:24.020Z,23.84
2023-04-18T12:31:51.901Z,23.83
2023-04-18T12:34:19.777Z,23.68
2023-04-18T12:36:47.470Z,23.72
2023-04-18T12:39:15.212Z,23.96
2023-04-18T12:41:44.271Z,24.01
2023-04-18T12:44:12.815Z,24.03
2023-04-18T12:46:40.788Z,24.09
2023-04-18T12:49:08.563Z,24.28
2023-04-18T12:51:36.313Z,24.01
2023-04-18T12:54:04.395Z,24.29
2023-04-18T12:56:32.114Z,24.28
2023-04-18T12:58:59.881Z,24.02
2023-04-18T13:01:27.942Z,23.94
2023-04-18T13:04:04.346Z,24.15
2023-04-18T13:06:37.788Z,24.26
2023-04-18T13:09:05.704Z,24.48
2023-04-18T13:11:33.486Z,24.70
2023-04-18T13:14:01.386Z,24.52
2023-04-18T13:16:29.319Z,24.55
2023-04-18T13:18:57.081Z,24.83
2023-04-18T13:21:26.118Z,24.74
2023-04-18T13:23:53.817Z,24.53
2023-04-18T13:26:21.518Z,24.53
2023-04-18T13:28:50.287Z,24.87
2023-04-18T13:31:18.076Z,24.67
2023-04-18T13:33:45.813Z,24.80
2023-04-18T13:36:13.504Z,24.57
2023-04-18T13:38:41.809Z,24.34
2023-04-18T13:41:12.988Z,24.21
2023-04-18T13:43:41.688Z,24.19
2023-04-18T13:46:09.645Z,23.87
2023-04-18T13:48:37.556Z,23.45
2023-04-18T13:51:05.783Z,23.04
2023-04-18T13:53:33.558Z,22.78
2023-04-18T13:56:01.853Z,22.75
2023-04-18T13:58:29.907Z,22.66
2023-04-18T14:00:57.636Z,22.58
2023-04-18T14:03:25.559Z,22.43
2023-04-18T14:05:53.351Z,22.33
2023-04-18T14:08:21.142Z,22.18
2023-04-18T14:10:48.914Z,21.85
2023-04-18T14:13:16.790Z,21.98
2023-04-18T14:15:44.639Z,21.95
2023-04-18T14:18:12.629Z,21.89
2023-04-18T14:20:40.722Z,21.91
2023-04-18T14:23:08.527Z,22.08
2023-04-18T14:25:36.479Z,22.08
2023-04-18T14:28:10.969Z,22.29
2023-04-18T14:30:39.927Z,22.60
2023-04-18T14:33:09.639Z,22.50
2023-04-18T14:35:37.747Z,22.68
2023-04-18T14:38:05.497Z,22.69
2023-04-18T14:40:33.254Z,22.84
2023-04-18T14:43:01.184Z,23.12
2023-04-18T14:45:32.800Z,23.20
2023-04-18T14:48:01.357Z,23.16
2023-04-18T14:50:29.148Z,23.21
2023-04-18T14:52:57.051Z,23.33
2023-04-18T14:55:25.919Z,23.23
2023-04-18T14:57:54.932Z,23.34
2023-04-18T15:00:22.807Z,23.28
2023-04-18T15:02:50.802Z,23.24
2023-04-18T15:05:20.120Z,23.32
2023-04-18T15:07:48.031Z,23.15
2023-04-18T15:10:16.316Z,22.98
2023-04-18T15:12:44.180Z,22.91
2023-04-18T15:15:12.010Z,22.97
2023-04-18T15:17:39.975Z,22.92
2023-04-18T15:20:08.466Z,23.04
2023-04-18T15:22:37.236Z,22.94
2023-04-18T15:25:05.857Z,22.97
2023-04-18T15:27:33.576Z,22.77
2023-04-18T15:30:02.652Z,22.62
2023-04-18T15:32:31.167Z,22.59
2023-04-18T15:34:58.903Z,22.46
2023-04-18T15:37:26.724Z,22.37
2023-04-18T15:39:54.571Z,22.27
2023-04-18T15:42:22.360Z,22.34
2023-04-18T15:44:50.946Z,22.23
2023-04-18T15:47:18.688Z,22.26
2023-04-18T15:49:47.040Z,22.10
2023-04-18T15:52:16.092Z,21.95
2023-04-18T15:54:44.206Z,21.84
2023-04-18T15:57:12.039Z,21.70
2023-04-18T15:59:39.884Z,21.68
2023-04-18T16:02:09.376Z,21.78
2023-04-18T16:04:37.203Z,21.52
2023-04-18T16:07:05.113Z,21.57
2023-04-18T16:09:32.929Z,21.60
2023-04-18T16:12:01.844Z,21.58
2023-04-18T16:14:30.572Z,21.41
2023-04-18T16:16:59.252Z,21.38
2023-04-18T16:19:27.188Z,21.45
2023-04-18T16:21:54.957Z,21.46
2023-04-18T16:24:22.657Z,21.46
2023-04-18T16:26:50.604Z,21.22
2023-04-18T16:29:18.344Z,21.25
2023-04-18T16:31:46.277Z,21.33
2023-04-18T16:34:15.927Z,21.26
2023-04-18T16:36:43.911Z,21.19
2023-04-18T16:39:11.792Z,21.15
2023-04-18T16:41:39.567Z,21.03
2023-04-18T16:44:07.409Z,21.07
2023-04-18T16:46:35.215Z,21.12
2023-04-18T16:49:03.036Z,21.16
2023-04-18T16:51:31.455Z,21.04
2023-04-18T16:53:59.418Z,20.86
2023-04-18T16:56:27.164Z,20.96
2023-04-18T16:58:54.979Z,20.90
2023-04-18T17:01:22.839Z,20.92
2023-04-18T17:03:50.869Z,20.80
2023-04-18T17:06:19.610Z,20.67
2023-04-18T17:08:49.000Z,20.70
2023-04-18T17:11:16.845Z,20.68
2023-04-18T17:13:44.606Z,20.76
2023-04-18T17:16:12.522Z,20.82
2023-04-18T17:18:41.761Z,20.65
2023-04-18T17:21:12.605Z,20.65
2023-04-18T17:23:42.587Z,20.68
2023-04-18T17:26:10.654Z,20.60
2023-04-18T17:28:38.525Z,20.62
2023-04-18T17:31:06.735Z,20.56
2023-04-18T17:33:34.600Z,20.49
2023-04-18T17:36:03.284Z,20.45
2023-04-18T17:38:32.733Z,20.50
2023-04-18T17:41:01.609Z,20.44
2023-04-18T17:43:29.628Z,20.37
2023-04-18T17:46:00.397Z,20.49
2023-04-18T17:48:28.279Z,20.30
2023-04-18T17:50:56.108Z,20.23
2023-04-18T17:53:23.912Z,20.22
2023-04-18T17:55:52.447Z,20.22
2023-04-18T17:58:20.213Z,20.13
2023-04-18T18:00:48.300Z,20.16
2023-04-18T18:03:16.485Z,20.14
2023-04-18T18:05:48.607Z,20.03
2023-04-18T18:08:16.519Z,19.81
2023-04-18T18:10:46.969Z,19.96
2023-04-18T18:13:15.305Z,19.93
2023-04-18T18:15:43.000Z,19.95
2023-04-18T18:18:11.598Z,19.87
2023-04-18T18:20:43.379Z,19.83
2023-04-18T18:23:11.248Z,19.78
2023-04-18T18:25:39.038Z,19.70
2023-04-18T18:28:07.325Z,19.74
2023-04-18T18:30:37.600Z,19.70
2023-04-18T18:33:06.829Z,19.64
2023-04-18T18:35:36.338Z,19.29
2023-04-18T18:38:04.341Z,19.17
2023-04-18T18:40:32.284Z,18.92
2023-04-18T18:43:00.995Z,18.90
2023-04-18T18:45:28.862Z,18.73
2023-04-18T18:47:56.769Z,18.63
2023-04-18T18:50:24.821Z,18.53
2023-04-18T18:52:52.771Z,18.44
2023-04-18T18:55:20.504Z,18.31
2023-04-18T18:57:48.394Z,18.18
2023-04-18T19:00:16.618Z,18.06
2023-04-18T19:02:44.645Z,17.90
2023-04-18T19:05:15.285Z,17.85
2023-04-18T19:07:43.275Z,17.78
2023-04-18T19:10:11.475Z,17.77
2023-04-18T19:12:39.329Z,17.70
2023-04-18T19:15:07.729Z,17.54
2023-04-18T19:17:36.048Z,17.55
2023-04-18T19:20:08.155Z,17.56
2023-04-18T19:22:37.149Z,17.48
2023-04-18T19:25:06.145Z,17.38
2023-04-18T19:27:34.752Z,17.32
2023-04-18T19:30:03.059Z,17.35
2023-04-18T19:32:32.908Z,17.36
2023-04-18T19:35:01.633Z,17.25
2023-04-18T19:37:29.808Z,17.16
2023-04-18T19:39:57.919Z,17.08
2023-04-18T19:42:27.356Z,17.08
2023-04-18T19:44:56.681Z,17.13
2023-04-18T19:47:25.086Z,17.14
2023-04-18T19:49:53.362Z,17.25
2023-04-18T19:52:21.571Z,17.24
2023-04-18T19:54:49.731Z,17.22
2023-04-18T19:57:17.825Z,17.17
2023-04-18T19:59:45.780Z,17.15
2023-04-18T20:02:13.832Z,17.12
2023-04-18T20:04:42.424Z,17.06
2023-04-18T20:07:10.700Z,17.03
2023-04-18T20:09:38.745Z,16.97
2023-04-18T20:12:06.781Z,16.98
2023-04-18T20:14:37.850Z,16.90
2023-04-18T20:17:19.947Z,16.73
2023-04-18T20:19:49.905Z,16.66
2023-04-18T20:22:19.188Z,16.65
2023-04-18T20:24:48.920Z,16.70
2023-04-18T20:27:20.573Z,16.63
2023-04-18T20:29:48.686Z,16.69
2023-04-18T20:32:16.856Z,16.77
2023-04-18T20:34:46.854Z,16.64
2023-04-18T20:37:16.245Z,16.66
2023-04-18T20:39:44.525Z,16.64
2023-04-18T20:42:14.822Z,16.61
2023-04-18T20:44:44.307Z,16.56
2023-04-18T20:47:14.752Z,16.43
2023-04-18T20:49:43.721Z,16.44
2023-04-18T20:52:11.802Z,16.46
2023-04-18T20:54:41.878Z,16.42
2023-04-18T20:57:10.086Z,16.43
2023-04-18T20:59:38.395Z,16.41
2023-04-18T21:02:09.408Z,16.41
2023-04-18T21:04:37.793Z,16.46
2023-04-18T21:07:05.926Z,16.57
2023-04-18T21:09:36.800Z,16.60
2023-04-18T21:12:06.095Z,16.54
2023-04-18T21:14:34.496Z,16.55
2023-04-18T21:17:02.322Z,16.42
2023-04-18T21:19:30.157Z,16.34
2023-04-18T21:21:57.999Z,16.39
2023-04-18T21:24:25.811Z,16.32
2023-04-18T21:26:53.704Z,16.34
2023-04-18T21:29:21.957Z,16.29
2023-04-18T21:31:50.347Z,16.29
2023-04-18T21:34:18.232Z,16.35
2023-04-18T21:36:46.260Z,16.50
2023-04-18T21:39:14.085Z,16.41
2023-04-18T21:41:41.885Z,16.47
2023-04-18T21:44:09.690Z,16.43
2023-04-18T21:46:37.523Z,16.51
2023-04-18T21:49:05.378Z,16.55
2023-04-18T21:51:33.270Z,16.57
2023-04-18T21:54:01.230Z,16.51
2023-04-18T21:56:29.048Z,16.44
2023-04-18T21:58:56.825Z,16.40
2023-04-18T22:01:24.767Z,16.48
2023-04-18T22:03:53.021Z,16.48
2023-04-18T22:06:22.156Z,16.48
2023-04-18T22:08:50.171Z,16.50
2023-04-18T22:11:18.858Z,16.42
2023-04-18T22:13:47.508Z,16.32
2023-04-18T22:16:15.597Z,16.22
2023-04-18T22:18:43.502Z,16.11
2023-04-18T22:21:11.434Z,16.07
2023-04-18T22:23:39.260Z,16.08
2023-04-18T22:26:06.985Z,16.00
2023-04-18T22:28:34.793Z,15.87
2023-04-18T22:31:02.815Z,15.71
2023-04-18T22:33:30.854Z,15.61
2023-04-18T22:35:58.758Z,15.50
2023-04-18T22:38:26.560Z,15.45
2023-04-18T22:40:54.397Z,15.47
2023-04-18T22:43:23.923Z,15.41
2023-04-18T22:45:51.841Z,15.37
2023-04-18T22:48:19.773Z,15.38
2023-04-18T22:50:47.645Z,15.37
2023-04-18T22:53:16.130Z,15.39
2023-04-18T22:55:45.027Z,15.35
2023-04-18T22:58:13.591Z,15.38
2023-04-18T23:00:41.410Z,15.38
2023-04-18T23:03:09.420Z,15.32
2023-04-18T23:05:37.389Z,15.22
2023-04-18T23:08:07.101Z,15.14
2023-04-18T23:10:35.130Z,15.05
2023-04-18T23:13:02.930Z,15.02
2023-04-18T23:15:30.765Z,14.97
2023-04-18T23:17:58.672Z,14.86
2023-04-18T23:20:26.515Z,14.76
2023-04-18T23:22:55.563Z,14.70
2023-04-18T23:25:23.405Z,14.69
2023-04-18T23:27:51.271Z,14.64
2023-04-18T23:30:19.035Z,14.62
2023-04-18T23:32:46.875Z,14.67
2023-04-18T23:35:14.701Z,14.64
2023-04-18T23:37:42.584Z,14.67
2023-04-18T23:40:11.220Z,14.59
2023-04-18T23:42:39.006Z,14.56
2023-04-18T23:45:07.185Z,14.52
2023-04-18T23:47:35.587Z,14.50
2023-04-18T23:50:03.595Z,14.58
2023-04-18T23:52:31.336Z,14.57
2023-04-18T23:55:00.929Z,14.66
2023-04-18T23:57:28.897Z,14.64
2023-04-18T23:59:56.675Z,14.64
